Rodeo, CA (94572)

8:45 PM PST on February 28, 2015 (GMT -0800)
Foxboro Heights | Change Station
CLOSE
Current Station
Personal Weather Station
Location: Hercules, CA
Elevation: 200 ft
Nearby Weather Stations

Elev 200 ft 38.02 °N, 122.26 °W | Updated 10 seconds ago

Overcast
Overcast
52.7 °F
Feels Like 52.7 °F
N
1.8
Wind Variable Wind from ESE
Gusts 3.1 mph

Today
High -- | Low -- °F
--% Chance of Precip.
Yesterday
High -- | Low -- °F
Precip. -- in
6:42 AM 6:01 PM
Waxing Gibbous, 82% visible
Pressure 29.83 in
Visibility 10.0 miles
Clouds Scattered Clouds 5000 ft
Mostly Cloudy 6000 ft
Dew Point 50 °F
Humidity 90%
Rainfall 0.04 in
Snow Depth Not available.
UV 0 out of 12
Pollen 7.20 out of 12
Air Quality Not available.
Flu Activity Not available.
METAR KCCR 010353Z 02004KT 10SM SCT050 BKN060 12/06 A2987 RMK AO2 SLP101 T01170061

More Conditions Fewer Conditions

Pressure 29.83 in
Visibility 10.0 miles
Clouds Scattered Clouds 5000 ft
Mostly Cloudy 6000 ft
Dew Point 50 °F
Humidity 90%
Rainfall 0.04 in
Snow Depth Not available.
UV 0 out of 12
Pollen 7.20 out of 12
Air Quality Not available.
Flu Activity Not available.
METAR KCCR 010353Z 02004KT 10SM SCT050 BKN060 12/06 A2987 RMK AO2 SLP101 T01170061

More Conditions Fewer Conditions

10-Day Weather Forecast

Almanac

Astronomy

Feb. 28, 2015 Rise Set
Actual Time
Civil Twilight
Nautical Twilight
Astronomical Twilight
Moon
Length of Visible Light
Length of Day
Tomorrow will be .
, % of the Moon is Illuminated

Today's Extremes

State Highs State Lows

Community

WunderPhotos

Upload Photos

1,801,320 photos uploaded!

WunderBlogs® & News

Nearby

Air Quality

  Air Quality AQ Index Pollutant
Not available.

Snow Depth

Station Depth Elevation

Earthquake Activity

City Distance Mag. Time & Date
Minimum magnitude displayed is 2.5.

Coastal Water Temperatures

Place Temperature

Nearby Weather Stations